Time;durP1;ratioP1;P1;durP2;ratioP2;P2;SDS_P1;SDS_P2;PMS_P1;PMS_P2;Temp;Humidity;BMP_temperature;BMP_pressure;BME280_temperature;BME280_humidity;BME280_pressure;Samples;Min_cycle;Max_cycle;Signal;HPM_P1;HPM_P2
2021/10/10 00:01:16;;;;;;;10.30;8.00;;;5.00;99.90;;;;;;5043781;28;20432;-71
2021/10/10 00:03:41;;;;;;;10.03;7.67;;;5.00;99.90;;;;;;5042686;28;20520;-72
2021/10/10 00:06:07;;;;;;;9.37;8.03;;;4.90;99.90;;;;;;5044301;28;20241;-71
2021/10/10 00:08:33;;;;;;;8.80;6.90;;;4.90;99.90;;;;;;5046837;28;20177;-71
2021/10/10 00:10:58;;;;;;;8.50;7.67;;;4.90;99.90;;;;;;5044820;28;20398;-71
2021/10/10 00:13:24;;;;;;;12.67;6.77;;;4.80;99.90;;;;;;5044866;28;20232;-71
2021/10/10 00:15:50;;;;;;;9.70;7.80;;;4.80;99.90;;;;;;5047598;28;20196;-71
2021/10/10 00:18:15;;;;;;;8.47;7.43;;;4.80;99.90;;;;;;5042481;28;20178;-71
2021/10/10 00:20:41;;;;;;;8.20;7.27;;;4.70;99.90;;;;;;5044289;28;20203;-71
2021/10/10 00:23:07;;;;;;;9.70;7.70;;;4.70;99.90;;;;;;5047323;28;20185;-71
2021/10/10 00:25:32;;;;;;;10.90;8.07;;;4.60;99.90;;;;;;5046336;28;20196;-71
2021/10/10 00:27:58;;;;;;;9.20;7.43;;;4.60;99.90;;;;;;5043874;28;20174;-71
2021/10/10 00:30:25;;;;;;;7.50;6.90;;;4.50;99.90;;;;;;5045296;28;20218;-71
2021/10/10 00:32:51;;;;;;;9.20;7.63;;;4.50;99.90;;;;;;5045770;28;20510;-71
2021/10/10 00:35:17;;;;;;;9.77;7.70;;;4.40;99.90;;;;;;5044523;28;20429;-71
2021/10/10 00:37:44;;;;;;;7.80;6.70;;;4.40;99.90;;;;;;5048073;28;20485;-71
2021/10/10 00:40:11;;;;;;;9.37;7.07;;;4.40;99.90;;;;;;5046591;28;20447;-71
2021/10/10 00:42:36;;;;;;;13.10;7.93;;;4.40;99.90;;;;;;5045720;28;20432;-71
2021/10/10 00:45:02;;;;;;;8.03;7.23;;;4.30;99.90;;;;;;5043405;28;20446;-71
2021/10/10 00:47:28;;;;;;;8.43;7.53;;;4.30;99.90;;;;;;5045219;28;20193;-71
2021/10/10 00:49:54;;;;;;;10.73;6.93;;;4.30;99.90;;;;;;5046184;28;20907;-71
2021/10/10 00:52:20;;;;;;;7.43;6.27;;;4.20;99.90;;;;;;5045453;28;20186;-71
2021/10/10 00:54:47;;;;;;;9.10;7.30;;;4.20;99.90;;;;;;5047271;28;20503;-71
2021/10/10 00:57:14;;;;;;;8.10;6.83;;;4.20;99.90;;;;;;5045025;28;20458;-71
2021/10/10 00:59:43;;;;;;;8.00;7.20;;;4.10;99.90;;;;;;5045466;28;20455;-71
2021/10/10 01:02:09;;;;;;;9.00;7.27;;;4.10;99.90;;;;;;5045901;28;20436;-71
2021/10/10 01:04:34;;;;;;;8.33;7.33;;;4.00;99.90;;;;;;5042872;28;20500;-71
2021/10/10 01:07:00;;;;;;;6.83;6.13;;;4.00;99.90;;;;;;5045124;28;20191;-71
2021/10/10 01:09:27;;;;;;;8.50;6.50;;;4.00;99.90;;;;;;5047308;28;20583;-71
2021/10/10 01:11:53;;;;;;;9.93;7.87;;;3.90;99.90;;;;;;5045685;28;20425;-71
2021/10/10 01:14:18;;;;;;;9.70;7.43;;;3.90;99.90;;;;;;5045959;28;20427;-71
2021/10/10 01:16:44;;;;;;;8.83;6.80;;;3.80;99.90;;;;;;5046804;28;20465;-71
2021/10/10 01:19:10;;;;;;;10.77;6.90;;;3.80;99.90;;;;;;5046949;28;20186;-71
2021/10/10 01:21:36;;;;;;;12.43;9.73;;;3.70;99.90;;;;;;5047508;28;20174;-71
2021/10/10 01:24:03;;;;;;;12.77;8.47;;;3.70;99.90;;;;;;5045776;28;20521;-71
2021/10/10 01:26:30;;;;;;;12.23;9.57;;;3.70;99.90;;;;;;5042464;28;20238;-67
2021/10/10 01:28:56;;;;;;;18.77;11.20;;;3.60;99.90;;;;;;5040239;28;20436;-67
2021/10/10 01:31:21;;;;;;;16.47;9.17;;;3.50;99.90;;;;;;5039835;28;20441;-67
2021/10/10 01:33:47;;;;;;;12.33;9.73;;;3.50;99.90;;;;;;5040513;28;20178;-66
2021/10/10 01:36:14;;;;;;;13.03;9.30;;;3.50;99.90;;;;;;5039642;28;20191;-67
2021/10/10 01:38:41;;;;;;;10.90;8.83;;;3.40;99.90;;;;;;5040986;28;20450;-67
2021/10/10 01:41:10;;;;;;;11.30;8.10;;;3.40;99.90;;;;;;5039445;28;20442;-67
2021/10/10 01:43:37;;;;;;;11.70;9.17;;;3.30;99.90;;;;;;5037770;28;20912;-66
2021/10/10 01:46:03;;;;;;;11.30;8.00;;;3.30;99.90;;;;;;5035354;28;20954;-67
2021/10/10 01:48:29;;;;;;;14.20;10.27;;;3.20;99.90;;;;;;5036987;28;20434;-66
2021/10/10 01:50:55;;;;;;;16.97;7.77;;;3.20;99.90;;;;;;5038133;28;20186;-67
2021/10/10 01:53:20;;;;;;;12.07;8.83;;;3.20;99.90;;;;;;5039157;28;20436;-67
2021/10/10 01:55:46;;;;;;;12.93;8.63;;;3.20;99.90;;;;;;5038564;28;20229;-67
2021/10/10 01:58:12;;;;;;;10.60;8.20;;;3.20;99.90;;;;;;5039200;28;20184;-67
2021/10/10 02:00:38;;;;;;;9.43;7.70;;;3.20;99.90;;;;;;5038983;28;20194;-67
2021/10/10 02:03:04;;;;;;;8.73;7.60;;;3.20;99.90;;;;;;5040478;28;20432;-67
2021/10/10 02:05:30;;;;;;;8.43;7.63;;;3.20;99.90;;;;;;5039190;28;20431;-66
2021/10/10 02:07:56;;;;;;;10.60;7.70;;;3.20;99.90;;;;;;5039708;28;20427;-66
2021/10/10 02:10:22;;;;;;;15.43;7.93;;;3.20;99.90;;;;;;5038245;28;20191;-67
2021/10/10 02:12:48;;;;;;;11.67;8.50;;;3.10;99.90;;;;;;5038204;28;20432;-66
2021/10/10 02:15:14;;;;;;;10.73;7.10;;;3.10;99.90;;;;;;5040571;28;20431;-66
2021/10/10 02:17:40;;;;;;;9.00;7.60;;;3.10;99.90;;;;;;5038303;28;20499;-66
2021/10/10 02:20:07;;;;;;;13.10;8.53;;;3.00;99.90;;;;;;5039963;28;20250;-66
2021/10/10 02:22:34;;;;;;;12.23;7.97;;;2.90;99.90;;;;;;5037984;28;20436;-66
2021/10/10 02:25:00;;;;;;;10.87;8.00;;;2.90;99.90;;;;;;5039877;28;20505;-66
2021/10/10 02:27:25;;;;;;;9.77;7.97;;;2.90;99.90;;;;;;5037229;28;20950;-66
2021/10/10 02:29:51;;;;;;;7.67;6.97;;;2.80;99.90;;;;;;5039555;28;20927;-66
2021/10/10 02:32:17;;;;;;;10.83;7.30;;;2.80;99.90;;;;;;5039583;28;20251;-66
2021/10/10 02:34:42;;;;;;;12.80;7.10;;;2.80;99.90;;;;;;5037403;28;20580;-66
2021/10/10 02:37:09;;;;;;;9.13;8.20;;;2.70;99.90;;;;;;5039692;28;20200;-66
2021/10/10 02:39:35;;;;;;;8.30;7.40;;;2.70;99.90;;;;;;5039403;28;20298;-66
2021/10/10 02:42:01;;;;;;;8.67;7.03;;;2.70;99.90;;;;;;5037605;28;20433;-66
2021/10/10 02:44:27;;;;;;;12.40;7.77;;;2.60;99.90;;;;;;5040841;28;20521;-66
2021/10/10 02:46:53;;;;;;;7.43;6.40;;;2.70;99.90;;;;;;5037395;28;20550;-66
2021/10/10 02:49:18;;;;;;;7.17;6.50;;;2.60;99.90;;;;;;5038774;28;20187;-66
2021/10/10 02:51:44;;;;;;;8.70;6.50;;;2.60;99.90;;;;;;5037108;28;20188;-66
2021/10/10 02:54:10;;;;;;;8.10;7.00;;;2.60;99.90;;;;;;5040002;28;20195;-66
2021/10/10 02:56:36;;;;;;;8.57;7.77;;;2.70;99.90;;;;;;5037008;28;20197;-66
2021/10/10 02:59:01;;;;;;;9.13;7.00;;;2.70;99.90;;;;;;5039804;28;20195;-66
2021/10/10 03:01:27;;;;;;;7.57;6.60;;;2.70;99.90;;;;;;5039083;28;20446;-66
2021/10/10 03:03:52;;;;;;;14.27;7.33;;;2.70;99.90;;;;;;5036732;28;20266;-66
2021/10/10 03:06:18;;;;;;;10.07;6.40;;;2.60;99.90;;;;;;5037455;28;20295;-67
2021/10/10 03:08:44;;;;;;;7.10;6.40;;;2.60;99.90;;;;;;5039841;28;20180;-67
2021/10/10 03:11:09;;;;;;;6.93;6.20;;;2.60;99.90;;;;;;5038212;28;20632;-66
2021/10/10 03:13:35;;;;;;;6.90;6.20;;;2.60;99.90;;;;;;5037601;28;20184;-66
2021/10/10 03:16:01;;;;;;;8.53;5.70;;;2.50;99.90;;;;;;5038855;28;20274;-67
2021/10/10 03:18:27;;;;;;;7.33;6.53;;;2.50;99.90;;;;;;5039719;28;20190;-66
2021/10/10 03:20:53;;;;;;;8.20;6.30;;;2.40;99.90;;;;;;5038621;28;20191;-67
2021/10/10 03:23:18;;;;;;;11.30;7.10;;;2.40;99.90;;;;;;5038669;28;20189;-67
2021/10/10 03:25:44;;;;;;;7.17;6.47;;;2.40;99.90;;;;;;5039263;28;20459;-69
2021/10/10 03:28:10;;;;;;;7.03;5.93;;;2.40;99.90;;;;;;5057953;28;20177;-70
2021/10/10 03:30:35;;;;;;;7.27;5.93;;;2.40;99.90;;;;;;5065159;28;20246;-70
2021/10/10 03:33:01;;;;;;;9.67;6.03;;;2.30;99.90;;;;;;5058903;28;20186;-70
2021/10/10 03:35:27;;;;;;;8.03;6.13;;;2.30;99.90;;;;;;5060810;28;20172;-70
2021/10/10 03:37:52;;;;;;;6.97;5.77;;;2.30;99.90;;;;;;5059069;28;20260;-70
2021/10/10 03:40:18;;;;;;;7.23;6.17;;;2.20;99.90;;;;;;5059273;28;20172;-70
2021/10/10 03:42:44;;;;;;;7.30;5.60;;;2.20;99.90;;;;;;5056845;28;20178;-70
2021/10/10 03:45:10;;;;;;;7.47;6.10;;;2.20;99.90;;;;;;5057191;28;20237;-70
2021/10/10 03:47:36;;;;;;;6.37;5.77;;;2.20;99.90;;;;;;5062481;28;20220;-70
2021/10/10 03:50:03;;;;;;;6.90;4.87;;;2.20;99.90;;;;;;5061270;28;20433;-70
2021/10/10 03:52:29;;;;;;;7.53;6.40;;;2.20;99.90;;;;;;5057555;28;20427;-70
2021/10/10 03:57:36;;;;;;;8.67;6.03;;;2.10;99.90;;;;;;5060935;28;20288;-70
2021/10/10 04:00:07;;;;;;;6.40;5.80;;;2.10;99.90;;;;;;5059505;28;20438;-70
2021/10/10 04:02:32;;;;;;;6.60;6.00;;;2.10;99.90;;;;;;5061437;28;20171;-69
2021/10/10 04:05:00;;;;;;;6.70;5.77;;;2.00;99.90;;;;;;5062388;28;20469;-70
2021/10/10 04:07:25;;;;;;;6.93;5.43;;;2.00;99.90;;;;;;5060258;28;20186;-70
2021/10/10 04:09:51;;;;;;;8.93;5.80;;;2.00;99.90;;;;;;5056489;28;20437;-70
2021/10/10 04:12:17;;;;;;;7.30;5.83;;;2.00;99.90;;;;;;5062512;28;20177;-70
2021/10/10 04:14:43;;;;;;;6.67;5.97;;;2.00;99.90;;;;;;5058485;28;20170;-69
2021/10/10 04:17:09;;;;;;;7.93;5.87;;;2.00;99.90;;;;;;5060673;28;20441;-70
2021/10/10 04:19:34;;;;;;;7.23;6.47;;;2.00;99.90;;;;;;5063519;28;20187;-70
2021/10/10 04:22:00;;;;;;;9.77;6.70;;;1.90;99.90;;;;;;5059408;28;20181;-70
2021/10/10 04:24:26;;;;;;;6.50;5.60;;;1.90;99.90;;;;;;5058578;28;20205;-70
2021/10/10 04:26:52;;;;;;;7.20;5.53;;;1.90;99.90;;;;;;5059954;28;20447;-69
2021/10/10 04:29:18;;;;;;;8.83;5.77;;;1.90;99.90;;;;;;5060690;28;20177;-70
2021/10/10 04:31:44;;;;;;;7.30;6.07;;;1.90;99.90;;;;;;5057693;28;20466;-70
2021/10/10 04:34:12;;;;;;;6.43;5.80;;;1.90;99.90;;;;;;5059270;28;20180;-70
2021/10/10 04:36:39;;;;;;;9.50;6.57;;;1.90;99.90;;;;;;5057811;28;20180;-70
2021/10/10 04:39:05;;;;;;;10.47;5.80;;;1.90;99.90;;;;;;5058641;28;20448;-70
2021/10/10 04:41:30;;;;;;;8.17;6.00;;;1.80;99.90;;;;;;5056692;28;20463;-70
2021/10/10 04:43:56;;;;;;;7.23;6.53;;;1.80;99.90;;;;;;5061532;28;20445;-70
2021/10/10 04:46:21;;;;;;;7.87;5.80;;;1.70;99.90;;;;;;5060258;28;20592;-70
2021/10/10 04:48:47;;;;;;;7.80;5.90;;;1.70;99.90;;;;;;5057387;28;20657;-69
2021/10/10 04:51:13;;;;;;;9.57;6.50;;;1.70;99.90;;;;;;5061339;28;20184;-70
2021/10/10 04:53:38;;;;;;;8.43;5.23;;;1.70;99.90;;;;;;5061437;28;20243;-70
2021/10/10 04:56:04;;;;;;;6.73;6.00;;;1.70;99.90;;;;;;5056197;28;20276;-70
2021/10/10 04:58:30;;;;;;;8.73;5.63;;;1.60;99.90;;;;;;5058153;28;20337;-70
2021/10/10 05:00:57;;;;;;;7.87;5.97;;;1.60;99.90;;;;;;5057267;28;20191;-70
2021/10/10 05:03:23;;;;;;;9.10;6.40;;;1.60;99.90;;;;;;5058694;28;20187;-70
2021/10/10 05:05:49;;;;;;;6.40;5.80;;;1.60;99.90;;;;;;5059816;28;20468;-70
2021/10/10 05:08:14;;;;;;;7.57;6.87;;;1.60;99.90;;;;;;5054417;28;20431;-70
2021/10/10 05:10:40;;;;;;;5.30;4.80;;;1.50;99.90;;;;;;5060514;28;20174;-70
2021/10/10 05:13:06;;;;;;;7.50;5.67;;;1.50;99.90;;;;;;5058781;28;20190;-70
2021/10/10 05:15:31;;;;;;;8.23;6.80;;;1.40;99.90;;;;;;5052167;28;20207;-70
2021/10/10 05:17:57;;;;;;;7.43;6.77;;;1.40;99.90;;;;;;5054703;28;20218;-70
2021/10/10 05:20:22;;;;;;;9.53;6.77;;;1.40;99.90;;;;;;5058357;28;20231;-70
2021/10/10 05:22:48;;;;;;;8.50;6.00;;;1.40;99.90;;;;;;5056194;28;20182;-70
2021/10/10 05:25:14;;;;;;;7.90;6.60;;;1.40;99.90;;;;;;5055711;28;20175;-70
2021/10/10 05:27:40;;;;;;;8.23;6.57;;;1.40;99.90;;;;;;5052234;28;20229;-70
2021/10/10 05:30:06;;;;;;;11.07;7.03;;;1.30;99.90;;;;;;5050833;28;20444;-70
2021/10/10 05:32:32;;;;;;;6.57;5.97;;;1.40;99.90;;;;;;5052604;28;20193;-70
2021/10/10 05:34:58;;;;;;;7.80;6.17;;;1.30;99.90;;;;;;5052111;28;20447;-70
2021/10/10 05:37:23;;;;;;;8.33;6.50;;;1.40;99.90;;;;;;5053609;28;20199;-70
2021/10/10 05:39:49;;;;;;;7.77;5.87;;;1.30;99.90;;;;;;5052248;28;20196;-71
2021/10/10 05:42:15;;;;;;;9.20;5.90;;;1.30;99.90;;;;;;5054584;28;20448;-70
2021/10/10 05:44:42;;;;;;;7.13;6.43;;;1.40;99.90;;;;;;5052761;28;20533;-70
2021/10/10 05:47:08;;;;;;;10.60;6.07;;;1.40;99.90;;;;;;5053733;28;20447;-70
2021/10/10 05:49:34;;;;;;;7.00;5.70;;;1.40;99.90;;;;;;5052969;28;20474;-70
2021/10/10 05:51:59;;;;;;;6.70;6.00;;;1.50;99.90;;;;;;5055527;28;20438;-70
2021/10/10 05:54:28;;;;;;;7.90;6.53;;;1.40;99.90;;;;;;5054757;28;20542;-70
2021/10/10 05:56:54;;;;;;;6.07;5.47;;;1.40;99.90;;;;;;5053342;28;20189;-70
2021/10/10 05:59:21;;;;;;;8.10;6.47;;;1.40;99.90;;;;;;5054308;28;20440;-70
2021/10/10 06:01:47;;;;;;;7.53;5.70;;;1.40;99.90;;;;;;5055617;28;20461;-70
2021/10/10 06:04:13;;;;;;;8.03;7.00;;;1.40;99.90;;;;;;5052946;28;20417;-70
2021/10/10 06:06:38;;;;;;;9.27;6.33;;;1.40;99.90;;;;;;5053086;28;20230;-70
2021/10/10 06:09:06;;;;;;;9.13;6.40;;;1.50;99.90;;;;;;5057977;28;20175;-70
2021/10/10 06:11:33;;;;;;;11.57;7.03;;;1.50;99.90;;;;;;5049768;28;20432;-70
2021/10/10 06:14:00;;;;;;;8.80;6.97;;;1.60;99.90;;;;;;5058936;28;20452;-70
2021/10/10 06:16:26;;;;;;;7.13;6.43;;;1.60;99.90;;;;;;5056818;28;20433;-70
2021/10/10 06:18:53;;;;;;;7.80;6.67;;;1.60;99.90;;;;;;5053731;28;20461;-70
2021/10/10 06:21:19;;;;;;;10.53;6.50;;;1.70;99.90;;;;;;5055077;28;20425;-70
2021/10/10 06:23:44;;;;;;;9.27;6.10;;;1.80;99.90;;;;;;5056566;28;20426;-70
2021/10/10 06:26:10;;;;;;;10.33;6.37;;;1.80;99.90;;;;;;5051034;28;20198;-72
2021/10/10 06:28:36;;;;;;;8.60;6.90;;;1.80;99.90;;;;;;5051821;28;20207;-71
2021/10/10 06:31:02;;;;;;;6.57;5.97;;;1.90;99.90;;;;;;5049768;28;20201;-69
2021/10/10 06:33:28;;;;;;;6.33;5.73;;;2.00;99.90;;;;;;5046357;28;20219;-69
2021/10/10 06:35:53;;;;;;;6.63;5.53;;;2.00;99.90;;;;;;5049712;28;20197;-69
2021/10/10 06:38:19;;;;;;;7.23;5.77;;;2.10;99.90;;;;;;5053135;28;20181;-70
2021/10/10 06:40:46;;;;;;;8.90;7.27;;;2.20;99.90;;;;;;5056153;28;20518;-70
2021/10/10 06:43:13;;;;;;;10.97;7.93;;;2.20;99.90;;;;;;5050299;28;20197;-70
2021/10/10 06:45:39;;;;;;;9.33;7.30;;;2.30;99.90;;;;;;5055284;28;20450;-70
2021/10/10 06:48:04;;;;;;;11.77;8.53;;;2.40;99.90;;;;;;5046223;28;20438;-70
2021/10/10 06:50:30;;;;;;;12.67;8.97;;;2.50;99.90;;;;;;5042653;28;20484;-70
2021/10/10 06:52:56;;;;;;;14.63;9.07;;;2.60;99.90;;;;;;5054106;28;20180;-70
2021/10/10 06:55:21;;;;;;;9.23;7.87;;;2.70;99.90;;;;;;5051025;28;20184;-69
2021/10/10 06:57:47;;;;;;;8.50;6.77;;;2.80;99.90;;;;;;5050887;28;20198;-70
2021/10/10 07:00:13;;;;;;;8.30;7.50;;;2.90;99.90;;;;;;5049774;28;20188;-70
2021/10/10 07:02:42;;;;;;;10.23;7.37;;;2.90;99.90;;;;;;5052966;28;20192;-70
2021/10/10 07:05:12;;;;;;;11.40;8.33;;;3.00;99.90;;;;;;5055381;28;20431;-70
2021/10/10 07:07:38;;;;;;;12.50;9.60;;;3.10;99.90;;;;;;5052855;28;20501;-70
2021/10/10 07:10:08;;;;;;;10.70;9.13;;;3.20;99.90;;;;;;5051606;28;20443;-71
2021/10/10 07:12:34;;;;;;;15.63;10.53;;;3.30;99.90;;;;;;5052366;28;20435;-70
2021/10/10 07:15:01;;;;;;;13.57;10.10;;;3.40;99.90;;;;;;5054720;28;20431;-70
2021/10/10 07:17:28;;;;;;;15.10;10.80;;;3.50;99.90;;;;;;5050150;28;20177;-70
2021/10/10 07:20:00;;;;;;;12.70;9.70;;;3.60;99.90;;;;;;5051993;28;20454;-70
2021/10/10 07:22:28;;;;;;;17.47;11.20;;;3.70;99.90;;;;;;5054086;28;20498;-70
2021/10/10 07:25:07;;;;;;;16.90;11.63;;;3.80;99.90;;;;;;5052914;28;20491;-70
2021/10/10 07:27:38;;;;;;;11.30;9.80;;;4.00;99.90;;;;;;5052237;28;20521;-70
2021/10/10 07:30:06;;;;;;;14.10;10.27;;;4.10;99.90;;;;;;5051073;28;20443;-71
2021/10/10 07:32:33;;;;;;;15.73;10.30;;;4.20;99.90;;;;;;5056381;28;20427;-70
2021/10/10 07:34:59;;;;;;;12.03;10.70;;;4.30;99.90;;;;;;5049580;28;20490;-70
2021/10/10 07:37:25;;;;;;;12.83;10.00;;;4.30;99.90;;;;;;5051049;28;20466;-70
2021/10/10 07:39:50;;;;;;;18.70;10.47;;;4.40;99.90;;;;;;5053679;28;20509;-70
2021/10/10 07:42:16;;;;;;;15.53;11.93;;;4.40;99.90;;;;;;5056221;28;20228;-70
2021/10/10 07:44:46;;;;;;;17.13;10.90;;;4.50;99.90;;;;;;5058604;28;20181;-69
2021/10/10 07:49:53;;;;;;;14.37;10.37;;;4.70;99.90;;;;;;5054144;28;20420;-69
2021/10/10 07:52:20;;;;;;;12.17;10.50;;;4.80;99.90;;;;;;5055893;28;20439;-69
2021/10/10 07:54:46;;;;;;;10.63;9.53;;;4.80;99.90;;;;;;5055605;28;20417;-69
2021/10/10 07:57:12;;;;;;;14.23;11.07;;;4.90;99.90;;;;;;5048009;28;20455;-69
2021/10/10 07:59:38;;;;;;;16.30;11.00;;;5.00;99.90;;;;;;5051173;28;20443;-70
2021/10/10 08:02:04;;;;;;;14.63;12.43;;;5.10;99.90;;;;;;5048521;28;20428;-70
2021/10/10 08:04:29;;;;;;;15.43;11.50;;;5.20;99.90;;;;;;5052579;28;20519;-69
2021/10/10 08:06:55;;;;;;;16.10;11.30;;;5.30;99.90;;;;;;5052647;28;20212;-70
2021/10/10 08:09:24;;;;;;;16.87;10.97;;;5.40;99.90;;;;;;5044364;28;20182;-70
2021/10/10 08:11:50;;;;;;;17.87;9.90;;;5.50;99.90;;;;;;5043213;28;20427;-70
2021/10/10 08:14:16;;;;;;;17.07;11.00;;;5.60;99.90;;;;;;5042654;28;20446;-75
2021/10/10 08:16:43;;;;;;;16.43;10.60;;;5.80;99.90;;;;;;5037725;28;20268;-76
2021/10/10 08:19:10;;;;;;;13.30;9.90;;;6.00;99.90;;;;;;5038941;28;20237;-75
2021/10/10 08:21:36;;;;;;;11.80;9.43;;;6.20;99.90;;;;;;5038051;28;20448;-76
2021/10/10 08:24:03;;;;;;;12.33;9.00;;;6.30;99.90;;;;;;5041920;28;20445;-76
2021/10/10 08:26:29;;;;;;;16.40;10.87;;;6.40;99.90;;;;;;5037609;28;20455;-76
2021/10/10 08:28:56;;;;;;;13.27;10.43;;;6.50;99.90;;;;;;5040633;28;20447;-76
2021/10/10 08:31:23;;;;;;;12.63;10.57;;;6.90;99.90;;;;;;5035532;28;20447;-76
2021/10/10 08:33:49;;;;;;;13.03;10.43;;;6.90;99.90;;;;;;5039283;28;20508;-76
2021/10/10 08:36:15;;;;;;;10.23;9.10;;;7.00;99.90;;;;;;5041202;28;20533;-76
2021/10/10 08:38:41;;;;;;;10.57;9.47;;;7.10;99.90;;;;;;5038965;28;20213;-76
2021/10/10 08:41:07;;;;;;;12.67;9.60;;;7.20;99.90;;;;;;5038021;28;20683;-74
2021/10/10 08:43:34;;;;;;;12.03;9.50;;;7.30;99.90;;;;;;5039348;28;20447;-76
2021/10/10 08:46:01;;;;;;;15.17;10.53;;;7.40;99.90;;;;;;5037905;28;20461;-76
2021/10/10 08:48:27;;;;;;;15.73;10.70;;;7.50;99.90;;;;;;5038934;28;20765;-77
2021/10/10 08:50:55;;;;;;;13.57;9.50;;;7.60;99.90;;;;;;5038802;28;21024;-76
2021/10/10 08:53:22;;;;;;;11.40;9.00;;;7.60;99.90;;;;;;5039647;28;20207;-76
2021/10/10 08:55:49;;;;;;;12.20;8.83;;;7.70;99.90;;;;;;5000989;28;1124442;-77
2021/10/10 08:58:20;;;;;;;15.17;10.17;;;7.70;99.90;;;;;;5039129;28;20512;-76
2021/10/10 09:00:49;;;;;;;14.83;10.07;;;7.90;99.90;;;;;;5037424;28;20432;-77
2021/10/10 09:03:16;;;;;;;12.10;9.10;;;8.00;99.90;;;;;;5039029;28;20502;-77
2021/10/10 09:05:43;;;;;;;11.27;8.57;;;8.20;99.90;;;;;;5037139;28;20436;-76
2021/10/10 09:08:08;;;;;;;12.67;9.27;;;8.20;99.90;;;;;;5038811;28;20424;-76
2021/10/10 09:10:34;;;;;;;11.20;9.20;;;8.30;99.90;;;;;;5037708;28;20435;-76
2021/10/10 09:13:15;;;;;;;15.13;9.57;;;8.50;99.90;;;;;;5042449;28;20247;-76
2021/10/10 09:15:48;;;;;;;14.70;9.60;;;8.70;99.90;;;;;;5039344;28;20178;-77
2021/10/10 09:18:14;;;;;;;13.90;10.20;;;8.90;99.90;;;;;;5042162;28;20428;-77
2021/10/10 09:20:41;;;;;;;10.07;8.60;;;9.10;99.90;;;;;;5040539;28;20768;-76
2021/10/10 09:23:09;;;;;;;13.63;9.70;;;9.20;99.90;;;;;;5038625;28;20432;-77
2021/10/10 09:25:36;;;;;;;14.67;9.20;;;9.50;99.90;;;;;;5040612;28;20440;-77
2021/10/10 09:28:21;;;;;;;13.53;9.50;;;9.70;99.90;;;;;;5037664;28;20443;-75
2021/10/10 09:30:51;;;;;;;9.43;8.43;;;9.90;99.90;;;;;;5038144;28;20438;-77
2021/10/10 09:33:16;;;;;;;12.50;8.80;;;10.00;99.90;;;;;;5041077;28;20424;-78
2021/10/10 09:35:43;;;;;;;11.37;7.80;;;10.10;99.90;;;;;;5042357;28;20454;-76
2021/10/10 09:38:16;;;;;;;10.87;8.20;;;10.30;99.90;;;;;;5041715;28;20267;-77
2021/10/10 09:40:51;;;;;;;10.10;8.17;;;10.50;99.90;;;;;;5038422;28;20513;-77
2021/10/10 09:43:16;;;;;;;11.00;8.90;;;10.70;99.90;;;;;;5039510;28;20416;-76
2021/10/10 09:45:53;;;;;;;14.90;9.20;;;10.90;99.90;;;;;;5038597;28;20428;-76
2021/10/10 09:48:34;;;;;;;10.03;8.13;;;11.00;99.90;;;;;;5048427;28;20169;-72
2021/10/10 09:51:00;;;;;;;12.07;8.80;;;11.00;99.90;;;;;;5040517;28;20427;-74
2021/10/10 09:53:31;;;;;;;12.37;8.83;;;11.10;99.90;;;;;;5040022;28;20432;-74
2021/10/10 09:56:06;;;;;;;9.00;8.20;;;11.10;99.90;;;;;;5039108;28;20255;-74
2021/10/10 09:58:39;;;;;;;10.90;9.00;;;11.20;99.90;;;;;;5036504;28;20854;-73
2021/10/10 10:01:18;;;;;;;11.53;9.20;;;11.20;99.90;;;;;;5036773;28;20436;-74
2021/10/10 10:04:03;;;;;;;9.97;8.17;;;11.20;99.90;;;;;;5040076;28;20436;-71
2021/10/10 10:06:31;;;;;;;8.10;7.30;;;11.10;99.90;;;;;;5039785;28;20942;-74
2021/10/10 10:09:03;;;;;;;11.40;8.00;;;11.10;99.90;;;;;;5039122;28;20492;-73
2021/10/10 10:11:40;;;;;;;9.70;8.00;;;11.00;99.90;;;;;;5044900;28;20427;-73
2021/10/10 10:14:12;;;;;;;11.47;8.23;;;11.10;99.90;;;;;;5056837;28;20438;-74
2021/10/10 10:16:43;;;;;;;11.23;8.00;;;11.20;99.90;;;;;;5041414;28;20544;-74
2021/10/10 10:19:16;;;;;;;10.60;7.53;;;11.30;99.90;;;;;;5041153;28;21230;-72
2021/10/10 10:21:43;;;;;;;8.80;7.97;;;11.30;99.90;;;;;;5040518;28;20432;-72
2021/10/10 10:24:13;;;;;;;10.77;7.67;;;11.30;99.90;;;;;;5041421;28;20515;-72
2021/10/10 10:26:39;;;;;;;9.00;8.10;;;11.30;99.90;;;;;;5040966;28;20908;-73
2021/10/10 10:29:14;;;;;;;8.27;7.47;;;11.40;99.90;;;;;;5037290;28;20428;-73
2021/10/10 10:31:43;;;;;;;10.30;8.20;;;11.40;99.90;;;;;;5040214;28;20169;-73
2021/10/10 10:34:29;;;;;;;9.00;7.13;;;11.40;99.90;;;;;;5038444;28;20773;-73
2021/10/10 10:37:06;;;;;;;11.80;8.70;;;11.50;99.90;;;;;;5038577;28;20452;-73
2021/10/10 10:39:39;;;;;;;11.00;8.70;;;11.50;99.90;;;;;;5039648;28;20424;-73
2021/10/10 10:42:11;;;;;;;11.13;7.73;;;11.70;99.90;;;;;;5035330;28;20522;-73
2021/10/10 10:44:40;;;;;;;8.37;7.37;;;12.00;99.90;;;;;;5036706;28;20456;-73
2021/10/10 10:47:07;;;;;;;9.00;6.70;;;12.20;99.90;;;;;;5038722;28;20785;-74
2021/10/10 10:49:51;;;;;;;9.80;7.10;;;12.30;99.90;;;;;;5036677;28;20436;-73
2021/10/10 10:52:24;;;;;;;8.57;7.23;;;12.30;99.90;;;;;;5037769;28;20487;-73
2021/10/10 10:54:55;;;;;;;9.00;8.00;;;12.30;99.90;;;;;;5038138;28;20945;-74
2021/10/10 10:57:31;;;;;;;7.87;6.87;;;12.30;99.90;;;;;;5035697;28;20505;-73
2021/10/10 10:59:59;;;;;;;10.27;6.90;;;12.40;99.90;;;;;;5037938;28;20427;-73
2021/10/10 11:02:56;;;;;;;9.23;7.73;;;12.50;99.90;;;;;;5039248;28;20524;-73
2021/10/10 11:05:31;;;;;;;8.17;6.50;;;12.60;99.90;;;;;;5036149;28;20423;-73
2021/10/10 11:07:57;;;;;;;7.70;6.57;;;12.80;99.90;;;;;;5041174;28;20451;-75
2021/10/10 11:10:23;;;;;;;7.17;6.47;;;13.10;99.90;;;;;;5035445;28;20447;-74
2021/10/10 11:13:15;;;;;;;8.07;7.27;;;13.30;99.90;;;;;;5035127;28;20428;-73
2021/10/10 11:15:51;;;;;;;8.60;6.40;;;13.40;99.90;;;;;;5037785;28;20178;-73
2021/10/10 11:18:17;;;;;;;8.77;7.90;;;13.60;99.90;;;;;;5035681;28;20439;-74
2021/10/10 11:20:54;;;;;;;75.27;55.70;;;13.70;99.90;;;;;;5036570;28;20818;-74
2021/10/10 11:23:22;;;;;;;8.63;7.40;;;13.80;99.90;;;;;;5036987;28;20485;-73
2021/10/10 11:25:49;;;;;;;8.93;8.07;;;13.90;99.90;;;;;;5034563;28;20423;-73
2021/10/10 11:28:19;;;;;;;7.97;7.20;;;13.90;99.90;;;;;;5037413;28;20428;-73
2021/10/10 11:30:45;;;;;;;7.80;6.60;;;14.00;99.90;;;;;;5038417;28;20428;-73
2021/10/10 11:33:13;;;;;;;9.43;6.43;;;13.80;99.90;;;;;;5038877;28;20439;-73
2021/10/10 11:35:42;;;;;;;9.90;7.00;;;13.80;99.90;;;;;;5038226;28;20486;-73
2021/10/10 11:38:12;;;;;;;8.40;7.20;;;13.80;99.90;;;;;;5034301;28;20471;-73
2021/10/10 11:40:56;;;;;;;6.97;6.30;;;13.70;99.90;;;;;;5031940;28;20425;-73
2021/10/10 11:43:24;;;;;;;6.87;5.70;;;13.70;99.90;;;;;;5026952;28;20446;-73
2021/10/10 11:45:57;;;;;;;10.17;7.40;;;13.60;99.90;;;;;;5040107;28;20432;-74
2021/10/10 11:48:34;;;;;;;8.37;7.10;;;13.60;99.90;;;;;;5033736;28;20436;-74
2021/10/10 11:51:00;;;;;;;9.00;6.17;;;13.60;99.90;;;;;;5043703;28;20510;-74
2021/10/10 11:53:41;;;;;;;7.87;6.23;;;13.50;99.90;;;;;;5044601;28;20431;-75
2021/10/10 11:56:07;;;;;;;7.00;6.40;;;13.40;99.90;;;;;;5039452;28;21114;-75
2021/10/10 11:58:33;;;;;;;8.13;7.33;;;13.50;99.90;;;;;;5043920;28;20435;-75
2021/10/10 12:01:10;;;;;;;9.30;7.00;;;13.50;99.90;;;;;;5038802;28;20635;-75
2021/10/10 12:03:41;;;;;;;6.87;6.10;;;13.50;99.90;;;;;;5057093;28;20483;-75
2021/10/10 12:06:16;;;;;;;8.20;6.70;;;13.50;99.90;;;;;;5044256;28;20452;-75
2021/10/10 12:08:42;;;;;;;7.60;6.90;;;13.50;99.90;;;;;;5042945;28;20420;-75
2021/10/10 12:11:11;;;;;;;6.70;6.10;;;13.50;99.90;;;;;;5040571;28;20443;-75
2021/10/10 12:13:36;;;;;;;6.63;5.93;;;13.70;99.90;;;;;;5044541;28;20283;-76
2021/10/10 12:16:03;;;;;;;7.77;6.20;;;13.80;99.90;;;;;;5042689;28;20432;-75
2021/10/10 12:18:31;;;;;;;5.67;5.23;;;14.20;99.90;;;;;;5043139;28;20193;-75
2021/10/10 12:21:27;;;;;;;7.80;6.50;;;14.40;99.90;;;;;;5043225;28;20432;-75
2021/10/10 12:24:02;;;;;;;5.83;5.33;;;14.50;99.90;;;;;;5041022;28;20817;-75
2021/10/10 12:26:29;;;;;;;10.13;5.70;;;14.60;99.90;;;;;;5042758;28;20534;-75
2021/10/10 12:28:54;;;;;;;6.03;5.43;;;14.80;99.90;;;;;;5043789;28;20415;-75
2021/10/10 12:31:23;;;;;;;7.83;6.00;;;15.00;99.90;;;;;;5041153;28;20512;-75
2021/10/10 12:33:49;;;;;;;6.53;5.80;;;15.10;99.90;;;;;;5041607;28;20178;-75
2021/10/10 12:36:16;;;;;;;5.90;5.30;;;15.30;99.90;;;;;;5040610;28;20438;-75
2021/10/10 12:38:44;;;;;;;5.67;5.17;;;15.40;99.90;;;;;;5040217;28;20634;-75
2021/10/10 12:41:19;;;;;;;6.17;5.40;;;15.50;99.90;;;;;;5038414;28;20466;-75
2021/10/10 12:43:45;;;;;;;6.93;5.53;;;15.50;99.90;;;;;;5040806;28;20869;-74
2021/10/10 12:46:11;;;;;;;5.97;5.47;;;15.50;99.90;;;;;;5040771;28;20458;-75
2021/10/10 12:48:37;;;;;;;8.60;5.63;;;15.60;99.90;;;;;;5041440;28;20424;-75
2021/10/10 12:51:04;;;;;;;5.77;5.17;;;15.60;99.90;;;;;;5041582;28;20599;-75
2021/10/10 12:53:34;;;;;;;5.90;4.60;;;15.80;99.90;;;;;;5040159;28;20178;-75
2021/10/10 12:56:16;;;;;;;6.27;5.60;;;15.90;99.90;;;;;;5040753;28;20801;-75